Time;durP1;ratioP1;P1;durP2;ratioP2;P2;SDS_P1;SDS_P2;PMS_P1;PMS_P2;Temp;Humidity;BMP_temperature;BMP_pressure;BME280_temperature;BME280_humidity;BME280_pressure;Samples;Min_cycle;Max_cycle;Signal;HPM_P1;HPM_P2
2022/10/02 00:01:57;;;;;;;0.50;0.40;;;;;;;17.78;100.00;94939.53;5112106;28;20429;-60
2022/10/02 00:04:33;;;;;;;0.87;0.83;;;;;;;18.16;100.00;94962.84;5112247;28;20419;-60
2022/10/02 00:07:05;;;;;;;0.40;0.30;;;;;;;18.26;100.00;94941.00;5112091;28;20426;-60
2022/10/02 00:09:40;;;;;;;0.40;0.20;;;;;;;18.27;100.00;94938.00;5112153;28;20418;-60
2022/10/02 00:12:14;;;;;;;0.50;0.30;;;;;;;17.88;100.00;94951.81;5112145;28;20942;-61
2022/10/02 00:14:46;;;;;;;0.50;0.30;;;;;;;18.29;100.00;94967.19;5129788;28;20415;-61
2022/10/02 00:17:18;;;;;;;0.40;0.30;;;;;;;18.61;100.00;94950.41;5114580;28;20423;-60
2022/10/02 00:19:46;;;;;;;0.40;0.30;;;;;;;18.76;100.00;94944.44;5112219;28;20767;-60
2022/10/02 00:22:27;;;;;;;0.60;0.43;;;;;;;18.46;100.00;94937.56;5111970;28;20442;-61
2022/10/02 00:25:04;;;;;;;0.53;0.40;;;;;;;17.99;100.00;94954.88;5111927;28;20426;-61
2022/10/02 00:27:40;;;;;;;0.60;0.43;;;;;;;17.36;100.00;94961.91;5111920;28;20427;-59
2022/10/02 00:30:13;;;;;;;10.73;0.80;;;;;;;17.31;100.00;94983.50;5112202;28;20529;-59
2022/10/02 00:32:54;;;;;;;5.07;0.93;;;;;;;17.75;100.00;94991.13;5112259;28;20419;-59
2022/10/02 00:35:45;;;;;;;0.50;0.43;;;;;;;17.82;100.00;94979.91;5112067;28;20418;-59
2022/10/02 00:38:26;;;;;;;0.50;0.40;;;;;;;18.00;100.00;94977.91;5081813;28;21018;-59
2022/10/02 00:41:16;;;;;;;0.50;0.50;;;;;;;17.74;100.00;94932.47;5115757;28;20419;-59
2022/10/02 00:43:58;;;;;;;0.50;0.30;;;;;;;18.20;100.00;94993.28;5115996;28;20442;-59
2022/10/02 00:46:45;;;;;;;0.40;0.30;;;;;;;18.67;100.00;94999.31;5115487;28;20438;-60
2022/10/02 00:49:28;;;;;;;0.60;0.50;;;;;;;18.78;100.00;95001.28;5115413;28;20478;-59
2022/10/02 00:52:05;;;;;;;0.70;0.70;;;;;;;18.60;100.00;95007.88;5115530;28;20419;-59
2022/10/02 00:55:10;;;;;;;0.40;0.30;;;;;;;18.95;100.00;95001.13;5115475;28;20429;-59
2022/10/02 00:57:54;;;;;;;0.40;0.20;;;;;;;18.89;100.00;94999.78;5115173;27;20434;-59
2022/10/02 01:00:23;;;;;;;0.40;0.30;;;;;;;18.48;100.00;94999.75;5115493;28;20429;-59
2022/10/02 01:03:18;;;;;;;0.57;0.57;;;;;;;18.65;100.00;94991.56;5115582;28;20488;-58
2022/10/02 01:05:46;;;;;;;0.40;0.30;;;;;;;18.99;100.00;94982.47;5115583;27;20427;-59
2022/10/02 01:08:15;;;;;;;0.40;0.20;;;;;;;19.00;100.00;94982.13;5115168;28;20426;-60
2022/10/02 01:10:45;;;;;;;0.40;0.37;;;;;;;19.03;100.00;94983.34;5115493;28;20419;-59
2022/10/02 01:13:13;;;;;;;0.40;0.30;;;;;;;18.61;100.00;94989.88;5115415;28;20422;-59
2022/10/02 01:15:46;;;;;;;0.40;0.20;;;;;;;18.72;100.00;94980.34;5114632;28;20419;-61
2022/10/02 01:18:17;;;;;;;0.60;0.30;;;;;;;18.88;100.00;94971.34;5114960;28;20866;-59
2022/10/02 01:20:48;;;;;;;0.50;0.30;;;;;;;18.99;100.00;94964.44;5115024;28;20429;-59
2022/10/02 01:23:24;;;;;;;0.40;0.30;;;;;;;18.35;100.00;94977.41;5114740;28;20427;-59
2022/10/02 01:25:54;;;;;;;4.73;0.50;;;;;;;17.86;100.00;94935.25;5115003;28;20915;-59
2022/10/02 01:28:23;;;;;;;0.60;0.30;;;;;;;18.49;100.00;94990.59;5114605;28;20430;-59
2022/10/02 01:30:55;;;;;;;0.50;0.40;;;;;;;18.51;100.00;94968.78;5115128;28;20433;-59
2022/10/02 01:33:24;;;;;;;0.70;0.60;;;;;;;18.58;100.00;94983.25;5115015;28;20429;-59
2022/10/02 01:35:52;;;;;;;0.40;0.30;;;;;;;18.47;100.00;94984.75;5114961;28;20422;-60
2022/10/02 01:38:23;;;;;;;0.50;0.30;;;;;;;18.74;100.00;94970.03;5114970;28;20463;-59
2022/10/02 01:40:51;;;;;;;0.40;0.30;;;;;;;18.85;100.00;94974.66;5114928;28;20897;-59
2022/10/02 01:43:25;;;;;;;0.40;0.30;;;;;;;18.73;100.00;94979.19;5114544;28;20422;-59
2022/10/02 01:46:19;;;;;;;0.40;0.30;;;;;;;18.56;100.00;94974.75;5114923;28;20426;-59
2022/10/02 01:48:55;;;;;;;0.40;0.20;;;;;;;18.60;100.00;94962.25;5114436;28;20437;-59
2022/10/02 01:51:47;;;;;;;0.40;0.30;;;;;;;18.77;100.00;94970.16;5114140;28;20423;-59
2022/10/02 01:54:27;;;;;;;0.40;0.30;;;;;;;18.92;100.00;94972.22;5114396;28;20439;-59
2022/10/02 01:57:04;;;;;;;0.50;0.50;;;;;;;18.93;100.00;94971.13;5114419;28;20422;-59
2022/10/02 01:59:47;;;;;;;0.40;0.30;;;;;;;18.53;100.00;94971.94;5114205;28;20462;-59
2022/10/02 02:02:23;;;;;;;0.40;0.20;;;;;;;18.54;100.00;94960.09;5114095;28;20431;-59
2022/10/02 02:04:58;;;;;;;0.40;0.20;;;;;;;18.40;100.00;94950.38;5113823;28;20441;-60
2022/10/02 02:07:34;;;;;;;0.40;0.20;;;;;;;18.70;100.00;94959.16;5113782;27;20418;-60
2022/10/02 02:10:13;;;;;;;0.40;0.30;;;;;;;18.78;100.00;94963.69;5114110;28;20424;-60
2022/10/02 02:12:45;;;;;;;0.40;0.30;;;;;;;18.81;100.00;94972.97;5114051;28;20901;-60
2022/10/02 02:15:23;;;;;;;0.40;0.30;;;;;;;18.51;100.00;94968.78;5114005;28;20426;-60
2022/10/02 02:17:56;;;;;;;5.40;1.23;;;;;;;18.62;100.00;94965.38;5114146;28;20431;-60
2022/10/02 02:20:30;;;;;;;0.50;0.43;;;;;;;18.56;100.00;94966.72;5114260;28;20469;-60
2022/10/02 02:23:05;;;;;;;0.50;0.30;;;;;;;18.26;100.00;94968.63;5116086;28;20434;-61
2022/10/02 02:25:39;;;;;;;0.40;0.20;;;;;;;18.18;100.00;94968.69;5125386;28;20421;-60
2022/10/02 02:28:11;;;;;;;0.60;0.50;;;;;;;17.96;100.00;94974.31;5115055;28;20882;-60
2022/10/02 02:30:45;;;;;;;0.70;0.30;;;;;;;17.81;100.00;94981.00;5113702;28;21164;-60
2022/10/02 02:33:18;;;;;;;1.27;0.40;;;;;;;17.86;100.00;94972.78;5113680;28;20426;-60
2022/10/02 02:35:50;;;;;;;0.40;0.30;;;;;;;18.16;100.00;94960.19;5113984;28;20500;-60
2022/10/02 02:38:24;;;;;;;0.40;0.30;;;;;;;17.56;100.00;94969.28;5113725;28;20423;-60
2022/10/02 02:40:56;;;;;;;0.53;0.47;;;;;;;17.06;100.00;94979.00;5113510;28;20438;-60
2022/10/02 02:43:30;;;;;;;0.50;0.40;;;;;;;17.41;100.00;94979.69;5113513;28;20423;-60
2022/10/02 02:46:05;;;;;;;0.40;0.20;;;;;;;17.75;100.00;94960.84;5113682;28;20492;-60
2022/10/02 02:48:39;;;;;;;0.60;0.30;;;;;;;17.52;100.00;94968.38;5113289;28;20426;-60
2022/10/02 02:51:14;;;;;;;0.50;0.30;;;;;;;17.68;100.00;94966.72;5113033;28;20975;-60
2022/10/02 02:53:49;;;;;;;0.90;0.50;;;;;;;17.38;100.00;94967.72;5113308;28;20476;-60
2022/10/02 02:56:20;;;;;;;0.50;0.50;;;;;;;17.08;100.00;94964.19;5113493;28;20434;-59
2022/10/02 02:58:54;;;;;;;0.67;0.67;;;;;;;17.63;100.00;94960.75;5113405;28;20431;-59
2022/10/02 03:01:23;;;;;;;0.90;0.43;;;;;;;17.97;100.00;94959.78;5112713;28;20423;-59
2022/10/02 03:03:52;;;;;;;0.40;0.27;;;;;;;17.81;100.00;94958.78;5113390;28;20457;-59
2022/10/02 03:06:36;;;;;;;0.40;0.30;;;;;;;18.05;100.00;94958.97;5113307;28;20422;-59
2022/10/02 03:09:10;;;;;;;0.47;0.37;;;;;;;18.00;100.00;94970.66;5113335;27;20517;-59
2022/10/02 03:11:54;;;;;;;0.40;0.30;;;;;;;17.45;100.00;94968.03;5113354;28;20437;-59
2022/10/02 03:14:44;;;;;;;0.50;0.30;;;;;;;16.92;100.00;94930.22;5112889;28;20942;-59
2022/10/02 03:17:28;;;;;;;0.40;0.20;;;;;;;17.35;100.00;94959.56;5113091;28;20453;-59
2022/10/02 03:20:06;;;;;;;0.50;0.43;;;;;;;17.09;100.00;94979.16;5112847;28;20465;-59
2022/10/02 03:22:45;;;;;;;0.40;0.20;;;;;;;17.04;100.00;94967.81;5113039;28;20445;-59
2022/10/02 03:25:20;;;;;;;0.50;0.30;;;;;;;17.47;100.00;94981.91;5112671;28;20831;-59
2022/10/02 03:27:55;;;;;;;1.80;0.30;;;;;;;17.13;100.00;94988.13;5113057;28;20423;-58
2022/10/02 03:30:23;;;;;;;0.50;0.30;;;;;;;17.47;100.00;94984.59;5112645;28;20430;-59
2022/10/02 03:32:55;;;;;;;0.40;0.20;;;;;;;16.88;100.00;94883.75;5112507;28;21088;-59
2022/10/02 03:35:25;;;;;;;0.67;0.67;;;;;;;17.43;100.00;94998.94;5112636;28;21002;-59
2022/10/02 03:37:57;;;;;;;4.23;0.57;;;;;;;17.11;100.00;94968.13;5112523;28;20412;-59
2022/10/02 03:40:26;;;;;;;0.40;0.30;;;;;;;17.15;100.00;94999.28;5112487;28;20466;-59
2022/10/02 03:42:57;;;;;;;0.40;0.30;;;;;;;17.22;100.00;95017.59;5112527;28;20426;-59
2022/10/02 03:45:25;;;;;;;0.50;0.47;;;;;;;17.40;100.00;95013.75;5112437;28;20515;-59
2022/10/02 03:48:15;;;;;;;1.20;0.47;;;;;;;17.64;100.00;95023.97;5112340;28;20447;-59
2022/10/02 03:50:44;;;;;;;0.40;0.40;;;;;;;17.27;100.00;95017.41;5112243;28;20991;-59
2022/10/02 03:53:14;;;;;;;0.40;0.30;;;;;;;17.63;100.00;95017.03;5112504;28;20419;-59
2022/10/02 03:55:46;;;;;;;2.20;0.67;;;;;;;17.09;100.00;95026.56;5112661;28;20947;-59
2022/10/02 03:58:17;;;;;;;0.50;0.40;;;;;;;17.33;100.00;95023.41;5112845;28;20418;-58
2022/10/02 04:00:52;;;;;;;0.50;0.40;;;;;;;17.50;100.00;95008.06;5112383;28;20462;-59
2022/10/02 04:03:27;;;;;;;0.40;0.30;;;;;;;17.72;100.00;95015.09;5112331;28;20430;-59
2022/10/02 04:06:01;;;;;;;0.40;0.30;;;;;;;17.59;100.00;95018.78;5112242;28;20414;-59
2022/10/02 04:08:35;;;;;;;0.40;0.30;;;;;;;17.59;100.00;95027.59;5112427;28;20424;-59
2022/10/02 04:11:08;;;;;;;0.40;0.20;;;;;;;17.23;100.00;95029.84;5112209;28;20904;-59
2022/10/02 04:13:41;;;;;;;0.53;0.50;;;;;;;17.20;100.00;95033.19;5115218;28;20903;-59
2022/10/02 04:16:14;;;;;;;0.40;0.30;;;;;;;17.46;100.00;95043.84;5116688;27;20418;-59
2022/10/02 04:18:52;;;;;;;0.60;0.40;;;;;;;16.84;100.00;95071.00;5116374;28;20446;-59
2022/10/02 04:21:33;;;;;;;0.47;0.37;;;;;;;16.86;100.00;95070.66;5116361;28;20469;-60
2022/10/02 04:24:09;;;;;;;0.50;0.30;;;;;;;16.40;100.00;95088.03;5116804;28;20418;-60
2022/10/02 04:26:41;;;;;;;1.23;1.07;;;;;;;16.20;100.00;95032.44;5116298;27;20452;-60
2022/10/02 04:29:16;;;;;;;0.50;0.40;;;;;;;16.99;100.00;95096.50;5116509;28;20425;-59
2022/10/02 04:31:48;;;;;;;1.00;0.90;;;;;;;16.67;100.00;95103.06;5116827;28;20418;-61
2022/10/02 04:34:17;;;;;;;0.77;0.60;;;;;;;16.14;100.00;95108.53;5117825;28;20458;-60
2022/10/02 04:37:01;;;;;;;0.50;0.30;;;;;;;16.75;100.00;95107.66;5126951;27;20430;-59
2022/10/02 04:39:44;;;;;;;0.40;0.30;;;;;;;16.84;100.00;95099.66;5116167;28;20433;-59
2022/10/02 04:42:27;;;;;;;6.23;0.50;;;;;;;16.73;100.00;95117.09;5115950;28;20476;-59
2022/10/02 04:45:14;;;;;;;1.03;1.03;;;;;;;16.84;100.00;95116.50;5115928;28;20425;-58
2022/10/02 04:48:05;;;;;;;0.50;0.33;;;;;;;17.22;100.00;95108.66;5115735;28;20419;-59
2022/10/02 04:50:51;;;;;;;0.47;0.40;;;;;;;17.20;100.00;95102.03;5115219;28;21006;-58
2022/10/02 04:53:40;;;;;;;1.30;0.60;;;;;;;17.02;100.00;95114.63;5115734;28;20423;-59
2022/10/02 04:56:26;;;;;;;0.40;0.30;;;;;;;16.88;100.00;95125.47;5115409;28;20414;-59
2022/10/02 04:59:26;;;;;;;0.50;0.50;;;;;;;17.21;100.00;95128.47;5115484;28;20430;-55
2022/10/02 05:02:09;;;;;;;0.90;0.90;;;;;;;17.52;100.00;95120.28;5115245;28;20466;-57
2022/10/02 05:05:12;;;;;;;0.40;0.30;;;;;;;17.71;100.00;95126.91;5115478;28;20452;-57
2022/10/02 05:08:20;;;;;;;0.50;0.30;;;;;;;17.38;100.00;95133.84;5115649;28;20426;-57
2022/10/02 05:11:05;;;;;;;0.50;0.30;;;;;;;17.10;100.00;95127.25;5115328;28;20415;-57
2022/10/02 05:13:51;;;;;;;0.57;0.53;;;;;;;17.49;100.00;95124.38;5115083;28;20443;-57
2022/10/02 05:16:32;;;;;;;0.40;0.30;;;;;;;17.52;100.00;95128.31;5115089;28;20421;-57
2022/10/02 05:19:24;;;;;;;0.50;0.40;;;;;;;17.80;100.00;95118.84;5115044;28;20940;-57
2022/10/02 05:22:18;;;;;;;0.63;0.50;;;;;;;17.88;100.00;95111.88;5114745;28;20817;-57
2022/10/02 05:25:01;;;;;;;0.50;0.40;;;;;;;18.14;100.00;95118.72;5114374;27;20421;-57
2022/10/02 05:27:50;;;;;;;0.50;0.30;;;;;;;17.95;100.00;95137.09;5114905;28;20414;-57
2022/10/02 05:30:19;;;;;;;0.40;0.30;;;;;;;18.02;100.00;95133.91;5115005;28;20414;-58
2022/10/02 05:33:11;;;;;;;0.40;0.30;;;;;;;18.22;100.00;95128.66;5114711;28;20423;-58
2022/10/02 05:36:03;;;;;;;0.50;0.37;;;;;;;18.47;100.00;95147.69;5114763;28;20423;-58
2022/10/02 05:38:57;;;;;;;0.50;0.30;;;;;;;18.33;100.00;95143.28;5115008;28;20427;-58
2022/10/02 05:41:37;;;;;;;0.40;0.20;;;;;;;18.58;100.00;95148.88;5112248;28;20494;-58
2022/10/02 05:44:12;;;;;;;0.80;0.60;;;;;;;18.24;100.00;95142.53;5114549;28;20426;-58
2022/10/02 05:46:45;;;;;;;0.70;0.60;;;;;;;18.26;100.00;95142.22;5114756;27;20425;-58
2022/10/02 05:49:20;;;;;;;2.07;1.20;;;;;;;18.21;100.00;95150.44;5114260;27;20523;-58
2022/10/02 05:51:56;;;;;;;1.23;0.60;;;;;;;18.10;100.00;95160.72;5114274;28;20955;-58
2022/10/02 05:54:38;;;;;;;0.60;0.40;;;;;;;18.63;100.00;95172.88;5113501;28;20430;-58
2022/10/02 05:57:15;;;;;;;0.50;0.37;;;;;;;19.40;100.00;95175.13;5114431;27;20445;-57
2022/10/02 05:59:52;;;;;;;0.40;0.30;;;;;;;19.85;100.00;95102.59;5114016;28;20434;-57
2022/10/02 06:02:29;;;;;;;0.40;0.30;;;;;;;21.04;100.00;95170.38;5113294;28;20848;-57
2022/10/02 06:05:05;;;;;;;0.47;0.33;;;;;;;21.52;92.38;95167.63;5114460;28;20436;-56
2022/10/02 06:07:34;;;;;;;0.40;0.30;;;;;;;22.03;84.21;95176.00;5114071;28;20427;-56
2022/10/02 06:10:11;;;;;;;0.83;0.63;;;;;;;22.63;82.87;95178.38;5114419;28;20427;-56
2022/10/02 06:12:49;;;;;;;0.50;0.30;;;;;;;22.86;71.17;95186.66;5114256;28;20430;-56
2022/10/02 06:15:22;;;;;;;0.50;0.20;;;;;;;23.26;73.88;95181.00;5113913;28;20436;-56
2022/10/02 06:18:04;;;;;;;0.40;0.30;;;;;;;22.72;66.30;95167.38;5092113;28;20454;-55
2022/10/02 06:20:39;;;;;;;0.60;0.50;;;;;;;23.64;67.96;95166.78;5090996;28;20435;-54
2022/10/02 06:23:13;;;;;;;0.50;0.40;;;;;;;23.00;66.77;95175.38;5089794;28;20925;-54
2022/10/02 06:25:45;;;;;;;0.40;0.30;;;;;;;23.27;68.74;95188.78;5092128;28;20787;-54
2022/10/02 06:28:21;;;;;;;0.40;0.30;;;;;;;23.04;67.44;95182.44;5092208;28;20432;-54
2022/10/02 06:30:57;;;;;;;0.50;0.30;;;;;;;22.93;65.19;95197.63;5092823;28;20435;-54
2022/10/02 06:33:28;;;;;;;0.70;0.53;;;;;;;23.23;62.88;95187.09;5092160;28;21127;-54
2022/10/02 06:36:30;;;;;;;0.40;0.30;;;;;;;23.38;61.65;95196.38;5091176;28;20428;-54
2022/10/02 06:39:25;;;;;;;0.50;0.50;;;;;;;23.45;58.76;95191.13;5091046;28;20439;-54
2022/10/02 06:42:03;;;;;;;0.73;0.70;;;;;;;23.78;61.42;95196.84;5091146;28;20488;-53
2022/10/02 06:44:40;;;;;;;0.50;0.40;;;;;;;23.87;58.80;95195.50;5092118;28;20429;-53
2022/10/02 06:47:22;;;;;;;0.43;0.37;;;;;;;24.14;56.66;95185.59;5092331;28;20425;-53
2022/10/02 06:50:14;;;;;;;0.83;0.37;;;;;;;25.07;55.57;95189.56;5092669;28;20475;-53
2022/10/02 06:52:51;;;;;;;0.50;0.30;;;;;;;24.81;54.24;95194.19;5092695;28;20427;-53
2022/10/02 06:55:37;;;;;;;0.40;0.30;;;;;;;25.40;53.50;95193.56;5092721;28;20427;-54
2022/10/02 06:58:31;;;;;;;0.40;0.30;;;;;;;25.63;50.99;95189.63;5092937;28;20420;-54
2022/10/02 07:01:16;;;;;;;0.50;0.33;;;;;;;25.91;49.77;95183.03;5092394;28;20472;-54
2022/10/02 07:04:02;;;;;;;0.50;0.50;;;;;;;26.41;50.49;95201.47;5092484;28;20460;-54
2022/10/02 07:06:52;;;;;;;0.40;0.40;;;;;;;27.21;48.24;95208.81;5092821;28;20459;-54
2022/10/02 07:09:48;;;;;;;3.70;0.57;;;;;;;27.25;47.19;95225.94;5092452;28;20925;-53
2022/10/02 07:12:37;;;;;;;0.40;0.30;;;;;;;26.88;46.83;95219.81;5092320;28;20433;-53
2022/10/02 07:15:25;;;;;;;0.40;0.30;;;;;;;26.84;46.35;95227.16;5092634;28;20440;-52
2022/10/02 07:18:03;;;;;;;0.40;0.30;;;;;;;26.95;43.63;95222.59;5092545;28;20431;-52
2022/10/02 07:20:36;;;;;;;0.40;0.30;;;;;;;27.75;42.49;95227.09;5092327;28;20945;-52
2022/10/02 07:23:35;;;;;;;0.40;0.30;;;;;;;28.48;41.65;95206.78;5092150;28;20472;-52
2022/10/02 07:26:27;;;;;;;0.40;0.40;;;;;;;28.52;42.07;95234.84;5090341;28;20972;-52
2022/10/02 07:29:08;;;;;;;0.40;0.20;;;;;;;27.88;40.58;95222.09;5092133;28;20421;-52
2022/10/02 07:31:46;;;;;;;0.40;0.40;;;;;;;29.11;40.65;95235.34;5092242;28;20812;-52
2022/10/02 07:34:33;;;;;;;0.50;0.40;;;;;;;27.75;40.09;95239.94;5092101;28;21001;-52
2022/10/02 07:37:15;;;;;;;0.40;0.40;;;;;;;28.53;37.99;95236.41;5092311;28;20431;-52
2022/10/02 07:39:54;;;;;;;0.40;0.30;;;;;;;27.97;38.73;95247.06;5092019;28;20417;-53
2022/10/02 07:42:51;;;;;;;0.50;0.40;;;;;;;27.85;40.11;95252.84;5091703;28;20467;-53
2022/10/02 07:45:28;;;;;;;0.40;0.30;;;;;;;27.97;38.66;95268.84;5091958;28;20440;-52
2022/10/02 07:48:27;;;;;;;0.50;0.30;;;;;;;28.52;38.70;95267.56;5091580;28;20421;-52
2022/10/02 07:54:20;;;;;;;0.40;0.30;;;;;;;28.36;39.09;95269.06;5092120;28;20413;-52
2022/10/02 07:56:52;;;;;;;0.40;0.30;;;;;;;28.59;38.79;95275.00;5092169;28;20420;-51
2022/10/02 07:59:21;;;;;;;0.50;0.33;;;;;;;27.55;40.04;95272.84;5091754;28;20945;-52
2022/10/02 08:01:51;;;;;;;0.40;0.30;;;;;;;28.14;38.40;95277.16;5091914;28;20465;-51
2022/10/02 08:04:29;;;;;;;0.40;0.30;;;;;;;28.01;38.59;95297.69;5091935;28;20427;-51
2022/10/02 08:07:06;;;;;;;0.40;0.30;;;;;;;28.98;38.85;95297.72;5091637;28;20421;-51
2022/10/02 08:09:38;;;;;;;0.40;0.30;;;;;;;29.45;38.38;95293.88;5091780;28;20578;-51
2022/10/02 08:12:14;;;;;;;0.40;0.30;;;;;;;28.89;37.57;95292.63;5091552;28;20469;-51
2022/10/02 08:14:45;;;;;;;0.40;0.30;;;;;;;29.25;35.97;95225.25;5091346;28;20416;-51
2022/10/02 08:17:22;;;;;;;0.40;0.30;;;;;;;28.67;37.35;95282.81;5091502;28;20824;-51
2022/10/02 08:19:52;;;;;;;0.30;0.30;;;;;;;28.83;36.20;95223.25;5091481;28;20417;-52
2022/10/02 08:22:26;;;;;;;0.40;0.20;;;;;;;28.26;38.34;95290.44;5091413;28;20542;-52
2022/10/02 08:24:57;;;;;;;0.40;0.30;;;;;;;28.79;38.02;95289.91;5091434;28;20427;-52
2022/10/02 08:27:29;;;;;;;0.40;0.30;;;;;;;29.82;36.54;95280.63;5091492;28;20424;-52
2022/10/02 08:30:01;;;;;;;0.30;0.30;;;;;;;28.49;36.96;95229.38;5091374;28;20439;-52
2022/10/02 08:32:33;;;;;;;0.40;0.30;;;;;;;29.03;36.09;95277.44;5091321;28;20428;-52
2022/10/02 08:35:05;;;;;;;0.40;0.30;;;;;;;29.69;36.89;95281.41;5091209;28;20416;-52
2022/10/02 08:37:46;;;;;;;0.40;0.30;;;;;;;28.93;36.17;95270.81;5091153;28;20412;-51
2022/10/02 08:40:36;;;;;;;0.30;0.20;;;;;;;29.08;37.31;95268.88;5091484;28;20455;-50
2022/10/02 08:43:31;;;;;;;0.40;0.30;;;;;;;28.87;36.47;95209.59;5091632;28;20468;-51
2022/10/02 08:46:26;;;;;;;0.40;0.30;;;;;;;29.66;34.93;95266.56;5091149;28;20432;-52
2022/10/02 08:49:37;;;;;;;0.30;0.20;;;;;;;29.62;34.83;95197.50;5091100;28;21103;-52
2022/10/02 08:52:40;;;;;;;0.30;0.23;;;;;;;29.32;35.78;95268.91;5091290;28;20427;-50
2022/10/02 08:55:38;;;;;;;0.37;0.30;;;;;;;28.85;35.52;95263.78;5091289;28;20423;-52
2022/10/02 08:58:35;;;;;;;0.40;0.30;;;;;;;28.25;36.50;95263.56;5089445;28;20945;-52
2022/10/02 09:01:19;;;;;;;0.30;0.20;;;;;;;29.37;35.38;95256.84;5094107;28;20420;-52
2022/10/02 09:04:34;;;;;;;0.40;0.37;;;;;;;29.36;34.94;95256.06;5094782;28;20460;-52
2022/10/02 09:07:30;;;;;;;0.40;0.30;;;;;;;30.17;34.17;95255.94;5094834;28;20427;-52
2022/10/02 09:10:31;;;;;;;0.30;0.30;;;;;;;30.72;34.00;95266.28;5094375;28;20944;-52
2022/10/02 09:13:34;;;;;;;0.30;0.30;;;;;;;30.58;32.58;95250.72;5094423;28;20421;-52
2022/10/02 09:16:09;;;;;;;0.30;0.20;;;;;;;31.50;32.42;95252.09;5094657;28;20443;-52
2022/10/02 09:18:54;;;;;;;0.40;0.30;;;;;;;31.23;33.34;95252.66;5094683;28;20498;-52
2022/10/02 09:21:46;;;;;;;0.30;0.30;;;;;;;30.52;32.53;95243.31;5094775;28;20442;-52
2022/10/02 09:24:43;;;;;;;2.40;0.40;;;;;;;32.30;31.52;95245.03;5094885;28;20416;-52
2022/10/02 09:27:59;;;;;;;0.40;0.30;;;;;;;32.06;30.40;95248.81;5094693;28;20424;-52
2022/10/02 09:31:02;;;;;;;0.40;0.30;;;;;;;31.82;31.00;95242.41;5094366;28;20428;-50
2022/10/02 09:34:13;;;;;;;0.30;0.30;;;;;;;32.81;30.60;95240.47;5085148;28;20945;-51
2022/10/02 09:37:14;;;;;;;0.30;0.20;;;;;;;32.32;30.41;95239.91;5094270;28;20417;-51
2022/10/02 09:40:25;;;;;;;0.30;0.20;;;;;;;30.87;30.35;95196.59;5094161;28;20442;-52
2022/10/02 09:43:30;;;;;;;0.40;0.30;;;;;;;30.87;30.82;95232.16;5094274;28;20487;-52
2022/10/02 09:46:33;;;;;;;0.30;0.20;;;;;;;30.46;31.37;95182.00;5094355;28;20427;-52
2022/10/02 09:49:53;;;;;;;0.30;0.20;;;;;;;31.05;30.27;95221.91;5093844;28;20431;-52
2022/10/02 09:52:51;;;;;;;0.30;0.20;;;;;;;31.16;30.02;95219.88;5084587;28;20435;-52
2022/10/02 09:56:00;;;;;;;0.40;0.30;;;;;;;31.43;29.01;95215.31;5093816;28;20431;-52
2022/10/02 09:58:55;;;;;;;0.40;0.30;;;;;;;31.80;28.88;95216.56;5093898;28;20906;-52
2022/10/02 10:01:53;;;;;;;0.30;0.30;;;;;;;31.74;27.90;95212.72;5093820;28;20428;-52
2022/10/02 10:04:48;;;;;;;0.40;0.30;;;;;;;31.95;27.38;95205.03;5090973;28;20536;-52
2022/10/02 10:08:05;;;;;;;0.30;0.20;;;;;;;32.67;27.99;95208.50;5093664;28;20830;-52
2022/10/02 10:10:59;;;;;;;0.30;0.20;;;;;;;32.81;27.57;95205.56;5093655;28;20417;-52
2022/10/02 10:14:06;;;;;;;0.30;0.20;;;;;;;33.65;27.49;95189.69;5091098;28;20440;-52
2022/10/02 10:17:18;;;;;;;0.30;0.23;;;;;;;32.94;25.97;95198.28;5093501;28;20447;-52
2022/10/02 10:20:21;;;;;;;0.30;0.30;;;;;;;32.03;27.47;95194.78;5090782;28;20941;-52
2022/10/02 10:23:20;;;;;;;0.30;0.20;;;;;;;31.28;27.66;95202.16;5061309;28;20475;-52
2022/10/02 10:26:15;;;;;;;0.40;0.37;;;;;;;31.80;28.45;95187.19;5093828;28;20439;-53
2022/10/02 10:29:26;;;;;;;0.40;0.30;;;;;;;33.20;26.91;95204.97;5090623;28;20447;-52
2022/10/02 10:32:25;;;;;;;0.37;0.30;;;;;;;33.97;26.71;95200.09;5093261;28;20432;-52
2022/10/02 10:35:59;;;;;;;0.30;0.23;;;;;;;34.29;26.92;95189.25;5093119;28;20576;-52
2022/10/02 10:38:48;;;;;;;0.40;0.30;;;;;;;32.61;26.16;95193.69;5093297;28;20436;-52
2022/10/02 10:41:38;;;;;;;0.40;0.30;;;;;;;32.10;26.90;95191.19;5092958;28;20562;-52
2022/10/02 10:44:53;;;;;;;0.30;0.30;;;;;;;34.08;25.16;95188.94;5092827;28;20655;-52
2022/10/02 10:47:52;;;;;;;0.30;0.20;;;;;;;32.94;28.40;95189.28;5092942;28;20424;-52
2022/10/02 10:50:41;;;;;;;0.30;0.20;;;;;;;33.48;27.64;95189.97;5092538;28;20225;-52
2022/10/02 10:53:23;;;;;;;0.30;0.20;;;;;;;33.45;27.61;95175.09;5092946;28;20205;-52
2022/10/02 10:56:25;;;;;;;0.30;0.20;;;;;;;32.67;27.53;95185.75;5092624;28;20663;-52
2022/10/02 10:59:15;;;;;;;0.30;0.30;;;;;;;32.78;27.20;95181.69;5092929;28;20771;-52
2022/10/02 11:02:01;;;;;;;0.37;0.27;;;;;;;32.80;28.15;95184.00;5092479;28;20208;-52
2022/10/02 11:05:00;;;;;;;0.50;0.30;;;;;;;31.23;28.59;95180.69;5092582;28;20467;-52
2022/10/02 11:07:44;;;;;;;0.30;0.20;;;;;;;31.64;28.78;95161.53;5091948;28;20951;-52
2022/10/02 11:10:22;;;;;;;0.40;0.20;;;;;;;31.65;28.67;95188.53;5092390;28;20436;-53
2022/10/02 11:13:03;;;;;;;0.30;0.30;;;;;;;31.57;27.74;95180.78;5092264;28;20431;-53
2022/10/02 11:15:58;;;;;;;0.30;0.30;;;;;;;30.67;28.28;95174.44;5092446;28;20434;-53
2022/10/02 11:19:01;;;;;;;0.40;0.30;;;;;;;31.23;28.33;95186.94;5092289;28;20427;-53
2022/10/02 11:21:55;;;;;;;0.30;0.27;;;;;;;31.03;27.71;95185.94;5092510;28;20511;-53
2022/10/02 11:25:00;;;;;;;0.30;0.20;;;;;;;31.13;27.77;95195.25;5091446;28;20486;-53
2022/10/02 11:27:58;;;;;;;0.30;0.30;;;;;;;31.02;27.13;95183.63;5073708;28;20810;-54
2022/10/02 11:30:37;;;;;;;0.30;0.20;;;;;;;31.85;26.50;95188.72;5092012;28;20460;-53
2022/10/02 11:33:38;;;;;;;0.43;0.33;;;;;;;31.00;27.84;95186.75;5092024;28;20515;-53
2022/10/02 11:36:20;;;;;;;0.30;0.20;;;;;;;31.19;26.08;95180.72;5079399;28;20582;-53
2022/10/02 11:39:11;;;;;;;0.30;0.20;;;;;;;31.45;25.98;95182.06;5092054;28;20431;-52
2022/10/02 11:42:04;;;;;;;0.30;0.20;;;;;;;31.53;26.10;95182.78;5092096;28;20920;-53
2022/10/02 11:45:01;;;;;;;0.33;0.27;;;;;;;31.85;25.28;95186.72;5091466;28;20472;-53
2022/10/02 11:47:59;;;;;;;0.40;0.30;;;;;;;31.11;25.66;95187.44;5089836;28;20448;-52
2022/10/02 11:50:49;;;;;;;0.30;0.20;;;;;;;31.23;26.75;95184.22;5091452;28;20495;-54
2022/10/02 11:53:41;;;;;;;0.30;0.20;;;;;;;32.03;25.51;95176.38;5091758;28;20420;-53
2022/10/02 11:56:37;;;;;;;0.40;0.30;;;;;;;31.98;26.02;95176.00;5091750;28;20515;-53
2022/10/02 11:59:26;;;;;;;0.40;0.30;;;;;;;32.61;25.23;95185.47;5082150;28;20493;-53
2022/10/02 12:02:02;;;;;;;0.30;0.30;;;;;;;32.07;27.11;95154.41;5091816;28;20417;-54
2022/10/02 12:04:42;;;;;;;1.63;0.40;;;;;;;32.12;25.51;95175.88;5092021;28;20468;-53
2022/10/02 12:07:34;;;;;;;0.40;0.30;;;;;;;32.16;26.29;95168.38;5092005;28;20428;-52
2022/10/02 12:10:28;;;;;;;0.30;0.23;;;;;;;31.01;26.77;95144.50;5092359;28;20444;-52
2022/10/02 12:13:14;;;;;;;5.80;0.50;;;;;;;31.64;25.94;95183.47;5091847;28;20409;-53
2022/10/02 12:15:53;;;;;;;0.30;0.20;;;;;;;30.99;26.64;95184.41;5091978;28;20458;-53
2022/10/02 12:18:39;;;;;;;0.60;0.50;;;;;;;31.66;26.26;95183.81;5091951;28;20490;-53
2022/10/02 12:27:23;;;;;;;0.40;0.27;;;;;;;32.08;25.54;95188.84;5091600;28;20477;-53
2022/10/02 12:30:13;;;;;;;0.40;0.30;;;;;;;32.29;25.49;95191.34;5091530;28;20848;-54
2022/10/02 12:33:08;;;;;;;0.30;0.20;;;;;;;31.79;25.96;95196.59;5091579;28;20427;-54
2022/10/02 12:36:24;;;;;;;0.30;0.20;;;;;;;32.27;25.14;95169.03;5095515;28;20795;-53
2022/10/02 12:39:11;;;;;;;0.30;0.20;;;;;;;31.65;25.62;95193.25;5070674;28;20440;-53
2022/10/02 12:41:58;;;;;;;0.30;0.20;;;;;;;31.98;25.13;95201.50;5095387;28;20420;-53
2022/10/02 12:44:47;;;;;;;0.30;0.20;;;;;;;32.09;25.32;95167.69;5095175;28;20464;-53
2022/10/02 12:47:30;;;;;;;0.30;0.20;;;;;;;31.98;26.18;95204.25;5095140;28;20420;-53
2022/10/02 12:50:08;;;;;;;0.40;0.30;;;;;;;31.70;25.97;95203.75;5094815;28;21011;-52
2022/10/02 12:53:15;;;;;;;0.30;0.30;;;;;;;31.64;26.12;95208.13;5095372;28;20420;-52
2022/10/02 12:56:12;;;;;;;0.30;0.20;;;;;;;31.52;25.79;95206.69;5094745;28;20427;-52